createdAt,value
2019-05-01T00:02:16.118Z,47.23
2019-05-01T00:05:11.454Z,50.97
2019-05-01T00:07:41.659Z,48.20
2019-05-01T00:10:13.027Z,49.67
2019-05-01T00:12:43.091Z,51.53
2019-05-01T00:15:14.682Z,48.23
2019-05-01T00:17:44.877Z,49.57
2019-05-01T00:20:15.267Z,55.43
2019-05-01T00:22:45.578Z,52.43
2019-05-01T00:25:15.827Z,48.93
2019-05-01T00:27:46.121Z,50.33
2019-05-01T00:30:29.356Z,51.10
2019-05-01T00:32:50.897Z,48.73
2019-05-01T00:35:21.041Z,49.67
2019-05-01T00:37:53.863Z,50.67
2019-05-01T00:40:24.027Z,50.53
2019-05-01T00:42:54.192Z,51.77
2019-05-01T00:45:24.432Z,49.90
2019-05-01T00:47:54.444Z,49.90
2019-05-01T00:50:24.686Z,46.87
2019-05-01T00:52:54.749Z,51.63
2019-05-01T00:55:46.142Z,52.23
2019-05-01T00:58:35.196Z,52.63
2019-05-01T01:01:20.515Z,51.57
2019-05-01T01:03:50.703Z,53.00
2019-05-01T01:06:20.982Z,52.70
2019-05-01T01:08:51.148Z,56.20
2019-05-01T01:11:21.322Z,53.60
2019-05-01T01:13:51.549Z,51.77
2019-05-01T01:16:21.747Z,52.00
2019-05-01T01:18:51.813Z,53.57
2019-05-01T01:21:22.015Z,51.60
2019-05-01T01:23:52.301Z,56.00
2019-05-01T01:26:22.676Z,57.47
2019-05-01T01:28:52.859Z,52.57
2019-05-01T01:31:23.025Z,55.70
2019-05-01T01:33:53.243Z,55.93
2019-05-01T01:36:23.452Z,59.17
2019-05-01T01:38:53.458Z,51.40
2019-05-01T01:41:23.848Z,59.00
2019-05-01T01:44:13.026Z,56.00
2019-05-01T01:46:44.389Z,60.70
2019-05-01T01:49:14.700Z,62.33
2019-05-01T01:51:45.139Z,55.13
2019-05-01T01:54:15.565Z,57.57
2019-05-01T01:56:45.981Z,55.57
2019-05-01T01:59:16.306Z,59.90
2019-05-01T02:02:05.459Z,60.93
2019-05-01T02:05:06.807Z,57.83
2019-05-01T02:07:37.402Z,61.53
2019-05-01T02:10:09.036Z,63.13
2019-05-01T02:12:41.676Z,61.83
2019-05-01T02:15:13.100Z,60.73
2019-05-01T02:17:43.299Z,61.27
2019-05-01T02:20:13.698Z,65.70
2019-05-01T02:22:44.005Z,62.10
2019-05-01T02:25:15.668Z,64.37
2019-05-01T02:28:04.005Z,62.80
2019-05-01T02:30:34.998Z,60.80
2019-05-01T02:33:05.828Z,60.40
2019-05-01T02:35:39.216Z,62.93
2019-05-01T02:38:10.782Z,64.23
2019-05-01T02:40:53.805Z,65.50
2019-05-01T02:43:26.980Z,60.30
2019-05-01T02:45:59.179Z,63.13
2019-05-01T02:48:33.403Z,66.20
2019-05-01T02:51:06.731Z,62.67
2019-05-01T02:53:39.860Z,62.90
2019-05-01T02:56:34.026Z,70.73
2019-05-01T02:59:06.867Z,64.33
2019-05-01T03:01:47.344Z,64.77
2019-05-01T03:04:11.088Z,69.63
2019-05-01T03:06:42.106Z,68.33
2019-05-01T03:09:12.608Z,69.97
2019-05-01T03:11:44.682Z,64.80
2019-05-01T03:14:18.953Z,68.30
2019-05-01T03:16:51.477Z,62.00
2019-05-01T03:19:43.309Z,62.77
2019-05-01T03:22:24.854Z,63.50
2019-05-01T03:24:55.482Z,62.73
2019-05-01T03:27:25.803Z,65.43
2019-05-01T03:29:56.257Z,61.03
2019-05-01T03:32:26.765Z,62.63
2019-05-01T03:34:57.535Z,65.17
2019-05-01T03:37:28.297Z,61.70
2019-05-01T03:39:58.595Z,65.87
2019-05-01T03:42:29.341Z,63.57
2019-05-01T03:45:00.127Z,62.67
2019-05-01T03:47:31.075Z,60.10
2019-05-01T03:50:01.393Z,65.10
2019-05-01T03:52:31.916Z,62.73
2019-05-01T03:55:02.538Z,65.00
2019-05-01T03:57:32.762Z,62.77
2019-05-01T04:00:05.162Z,61.50
2019-05-01T04:02:45.806Z,60.90
2019-05-01T04:05:16.231Z,61.37
2019-05-01T04:07:46.402Z,62.57
2019-05-01T04:10:17.736Z,62.27
2019-05-01T04:12:48.031Z,61.70
2019-05-01T04:15:18.432Z,67.17
2019-05-01T04:17:53.006Z,62.97
2019-05-01T04:20:23.413Z,65.53
2019-05-01T04:22:53.894Z,76.80
2019-05-01T04:25:24.901Z,78.33
2019-05-01T04:27:58.872Z,75.07
2019-05-01T04:30:37.977Z,75.07
2019-05-01T04:33:10.694Z,79.60
2019-05-01T04:35:58.734Z,80.63
2019-05-01T04:38:28.861Z,78.20
2019-05-01T04:40:59.074Z,72.00
2019-05-01T04:43:29.399Z,78.20
2019-05-01T04:45:59.826Z,78.37
2019-05-01T04:48:30.310Z,78.40
2019-05-01T04:51:00.721Z,78.93
2019-05-01T04:53:31.526Z,77.53
2019-05-01T04:56:01.842Z,85.03
2019-05-01T04:58:32.946Z,98.00
2019-05-01T05:01:04.052Z,94.87
2019-05-01T05:03:34.757Z,91.33
2019-05-01T05:06:05.338Z,86.23
2019-05-01T05:08:35.926Z,93.93
2019-05-01T05:11:11.495Z,84.60
2019-05-01T05:13:48.128Z,87.77
2019-05-01T05:16:36.067Z,93.93
2019-05-01T05:19:06.297Z,99.33
2019-05-01T05:21:36.656Z,95.70
2019-05-01T05:24:07.013Z,93.40
2019-05-01T05:26:37.333Z,102.17
2019-05-01T05:29:07.646Z,103.03
2019-05-01T05:31:38.384Z,100.60
2019-05-01T05:34:09.590Z,115.87
2019-05-01T05:36:41.506Z,107.87
2019-05-01T05:39:20.298Z,118.33
2019-05-01T05:41:52.095Z,102.77
2019-05-01T05:44:23.215Z,97.57
2019-05-01T05:46:53.521Z,114.63
2019-05-01T05:49:24.276Z,112.63
2019-05-01T05:52:06.430Z,114.20
2019-05-01T05:54:58.695Z,121.60
2019-05-01T05:57:52.649Z,125.33
2019-05-01T06:00:36.211Z,119.67
2019-05-01T06:03:31.285Z,119.10
2019-05-01T06:06:24.017Z,135.20
2019-05-01T06:08:57.607Z,135.30
2019-05-01T06:11:43.247Z,128.17
2019-05-01T06:14:34.528Z,130.53
2019-05-01T06:17:15.323Z,121.00
2019-05-01T06:19:59.306Z,127.00
2019-05-01T06:22:40.764Z,123.20
2019-05-01T06:25:22.659Z,128.33
2019-05-01T06:27:50.470Z,130.63
2019-05-01T06:30:21.003Z,130.63
2019-05-01T06:32:51.083Z,118.57
2019-05-01T06:35:21.423Z,123.80
2019-05-01T06:38:04.315Z,135.57
2019-05-01T06:40:44.205Z,132.90
2019-05-01T06:43:37.393Z,126.00
2019-05-01T06:46:27.387Z,124.00
2019-05-01T06:49:32.586Z,136.10
2019-05-01T06:52:03.882Z,136.87
2019-05-01T06:54:36.378Z,142.40
2019-05-01T06:57:07.832Z,133.63
2019-05-01T06:59:40.263Z,137.00
2019-05-01T07:02:15.850Z,131.97
2019-05-01T07:04:46.960Z,138.17
2019-05-01T07:07:25.095Z,131.33
2019-05-01T07:09:53.607Z,133.93
2019-05-01T07:12:28.350Z,142.13
2019-05-01T07:14:58.525Z,143.07
2019-05-01T07:17:28.926Z,133.20
2019-05-01T07:20:33.785Z,146.67
2019-05-01T07:23:17.121Z,146.87
2019-05-01T07:25:44.681Z,127.50
2019-05-01T07:28:15.010Z,138.77
2019-05-01T07:30:49.965Z,142.10
2019-05-01T07:33:20.670Z,132.63
2019-05-01T07:35:53.853Z,132.70
2019-05-01T07:38:23.473Z,130.97
2019-05-01T07:40:54.132Z,126.07
2019-05-01T07:43:41.908Z,151.03
2019-05-01T07:46:19.569Z,138.17
2019-05-01T07:48:50.132Z,140.73
2019-05-01T07:51:20.770Z,135.07
2019-05-01T07:53:52.437Z,134.10
2019-05-01T07:56:27.786Z,146.47
2019-05-01T07:58:54.947Z,139.23
2019-05-01T08:01:59.278Z,135.83
2019-05-01T08:04:36.949Z,133.03
2019-05-01T08:07:01.523Z,129.90
2019-05-01T08:09:31.770Z,126.33
2019-05-01T08:12:02.063Z,129.73
2019-05-01T08:14:32.229Z,139.23
2019-05-01T08:17:02.384Z,147.90
2019-05-01T08:19:51.456Z,131.57
2019-05-01T08:22:24.426Z,141.40
2019-05-01T08:24:58.741Z,130.27
2019-05-01T08:27:45.185Z,132.23
2019-05-01T08:30:54.061Z,130.80
2019-05-01T08:33:44.949Z,132.97
2019-05-01T08:36:15.841Z,136.93
2019-05-01T08:38:46.163Z,141.83
2019-05-01T08:41:16.358Z,126.93
2019-05-01T08:43:48.971Z,130.43
2019-05-01T08:46:37.545Z,138.70
2019-05-01T08:49:30.407Z,149.20
2019-05-01T08:52:04.915Z,146.33
2019-05-01T08:54:33.618Z,141.07
2019-05-01T08:57:04.621Z,136.47
2019-05-01T08:59:34.733Z,117.97
2019-05-01T09:02:09.469Z,126.80
2019-05-01T09:04:36.607Z,141.27
2019-05-01T09:07:06.868Z,138.97
2019-05-01T09:09:39.977Z,131.23
2019-05-01T09:12:12.032Z,136.33
2019-05-01T09:14:40.612Z,123.17
2019-05-01T09:17:10.683Z,123.43
2019-05-01T09:19:40.885Z,126.03
2019-05-01T09:22:10.985Z,120.33
2019-05-01T09:24:41.724Z,120.83
2019-05-01T09:27:31.320Z,118.93
2019-05-01T09:30:04.523Z,117.50
2019-05-01T09:32:35.109Z,114.93
2019-05-01T09:35:15.040Z,122.63
2019-05-01T09:37:49.654Z,116.93
2019-05-01T09:40:20.157Z,122.53
2019-05-01T09:42:50.423Z,118.67
2019-05-01T09:45:21.017Z,116.30
2019-05-01T09:49:42.404Z,123.80
2019-05-01T09:52:14.343Z,116.33
2019-05-01T09:54:57.999Z,108.73
2019-05-01T10:01:37.759Z,117.70
2019-05-01T10:04:47.411Z,106.83
2019-05-01T10:07:15.955Z,123.27
2019-05-01T10:11:07.169Z,113.40
2019-05-01T10:12:52.040Z,115.20
2019-05-01T10:15:22.252Z,120.37
2019-05-01T10:17:52.430Z,117.07
2019-05-01T10:20:22.777Z,125.33
2019-05-01T10:22:52.906Z,128.67
2019-05-01T10:25:23.096Z,125.77
2019-05-01T10:27:59.288Z,134.47
2019-05-01T10:30:48.207Z,125.50
2019-05-01T10:34:02.841Z,124.80
2019-05-01T10:36:35.259Z,128.13
2019-05-01T10:39:08.261Z,125.73
2019-05-01T10:41:41.194Z,134.53
2019-05-01T10:44:10.372Z,129.90
2019-05-01T10:46:40.522Z,138.63
2019-05-01T10:49:10.663Z,123.87
2019-05-01T10:51:40.777Z,131.83
2019-05-01T10:54:10.787Z,128.13
2019-05-01T10:56:40.938Z,139.50
2019-05-01T10:59:11.103Z,130.00
2019-05-01T11:01:46.922Z,138.00
2019-05-01T11:04:16.985Z,140.10
2019-05-01T11:06:47.126Z,132.47
2019-05-01T11:09:17.180Z,139.30
2019-05-01T11:11:47.426Z,124.87
2019-05-01T11:14:17.418Z,133.07
2019-05-01T11:16:47.757Z,133.50
2019-05-01T11:19:34.721Z,131.20
2019-05-01T11:22:05.058Z,131.40
2019-05-01T11:24:39.585Z,129.53
2019-05-01T11:27:09.838Z,132.57
2019-05-01T11:29:48.816Z,124.17
2019-05-01T11:33:00.980Z,123.40
2019-05-01T11:35:49.933Z,119.63
2019-05-01T11:38:34.508Z,126.13
2019-05-01T11:41:09.926Z,121.57
2019-05-01T11:44:10.363Z,121.50
2019-05-01T11:46:46.159Z,123.70
2019-05-01T11:55:44.989Z,105.23
2019-05-01T11:58:15.235Z,110.20
2019-05-01T12:00:46.758Z,105.93
2019-05-01T12:06:46.736Z,116.57
2019-05-01T12:09:19.197Z,112.23
2019-05-01T12:11:51.455Z,108.63
2019-05-01T12:14:21.495Z,107.13
2019-05-01T12:17:03.267Z,103.67
2019-05-01T12:19:33.447Z,95.07
2019-05-01T12:22:03.563Z,101.67
2019-05-01T12:24:33.544Z,106.50
2019-05-01T12:27:03.606Z,105.75
2019-05-01T12:29:33.603Z,96.83
2019-05-01T12:32:03.644Z,99.60
2019-05-01T12:34:33.738Z,98.17
2019-05-01T12:37:19.587Z,97.82
2019-05-01T12:39:50.325Z,92.50
2019-05-01T12:48:38.941Z,84.57
2019-05-01T12:51:09.564Z,89.90
2019-05-01T12:54:01.526Z,79.40
2019-05-01T12:56:52.571Z,80.65
2019-05-01T13:01:16.393Z,79.67
2019-05-01T13:02:28.309Z,84.52
2019-05-01T13:05:00.491Z,82.33
2019-05-01T13:11:26.418Z,85.05
2019-05-01T13:14:02.894Z,83.35
2019-05-01T13:16:35.191Z,81.92
2019-05-01T13:19:05.506Z,87.35
2019-05-01T13:25:17.061Z,78.83
2019-05-01T13:27:53.773Z,81.92
2019-05-01T13:30:49.189Z,86.17
2019-05-01T13:33:19.236Z,82.67
2019-05-01T13:35:49.524Z,80.77
2019-05-01T13:38:19.578Z,82.90
2019-05-01T13:40:49.725Z,72.03
2019-05-01T13:43:19.737Z,75.55
2019-05-01T13:45:49.824Z,73.70
2019-05-01T13:48:19.878Z,77.08
2019-05-01T13:50:49.975Z,75.30
2019-05-01T13:53:19.982Z,75.90
2019-05-01T13:55:50.030Z,81.32
2019-05-01T13:58:42.271Z,85.25
2019-05-01T14:01:42.442Z,81.63
2019-05-01T14:04:03.388Z,85.47
2019-05-01T14:06:35.880Z,83.05
2019-05-01T14:09:14.455Z,88.25
2019-05-01T14:11:47.770Z,87.67
2019-05-01T14:14:24.273Z,88.00
2019-05-01T14:20:01.988Z,80.70
2019-05-01T14:22:44.766Z,84.60
2019-05-01T14:25:15.016Z,73.77
2019-05-01T14:27:44.985Z,80.30
2019-05-01T14:30:15.150Z,76.40
2019-05-01T14:32:45.181Z,79.23
2019-05-01T14:35:15.456Z,75.03
2019-05-01T14:37:45.787Z,77.27
2019-05-01T14:40:16.163Z,74.93
2019-05-01T14:42:46.341Z,69.83
2019-05-01T14:45:17.243Z,70.97
2019-05-01T14:47:47.270Z,77.43
2019-05-01T14:50:17.441Z,78.47
2019-05-01T14:52:47.534Z,72.73
2019-05-01T14:55:18.097Z,69.67
2019-05-01T14:57:50.787Z,72.97
2019-05-01T15:00:21.110Z,77.27
2019-05-01T15:02:51.292Z,76.17
2019-05-01T15:05:21.339Z,71.87
2019-05-01T15:07:51.360Z,71.27
2019-05-01T15:10:21.482Z,66.03
2019-05-01T15:12:53.384Z,68.53
2019-05-01T15:15:37.689Z,70.53
2019-05-01T15:18:23.018Z,65.07
2019-05-01T15:20:53.034Z,71.47
2019-05-01T15:23:23.055Z,64.80
2019-05-01T15:25:53.088Z,66.13
2019-05-01T15:28:23.187Z,67.00
2019-05-01T15:30:53.973Z,68.80
2019-05-01T15:33:24.061Z,61.08
2019-05-01T15:35:54.118Z,64.07
2019-05-01T15:38:24.389Z,65.30
2019-05-01T15:41:28.785Z,60.70
2019-05-01T15:44:23.747Z,67.17
2019-05-01T15:46:53.961Z,75.23
2019-05-01T15:49:23.927Z,66.63
2019-05-01T15:51:53.890Z,72.33
2019-05-01T15:54:23.892Z,67.83
2019-05-01T15:56:53.979Z,66.07
2019-05-01T15:59:23.987Z,66.13
2019-05-01T16:01:53.987Z,67.87
2019-05-01T16:04:23.932Z,63.97
2019-05-01T16:06:54.049Z,61.00
2019-05-01T16:09:24.225Z,65.40
2019-05-01T16:12:13.131Z,63.37
2019-05-01T16:14:48.481Z,64.43
2019-05-01T16:17:18.669Z,65.17
2019-05-01T16:19:48.778Z,68.40
2019-05-01T16:22:18.992Z,67.97
2019-05-01T16:24:49.095Z,64.60
2019-05-01T16:27:19.038Z,63.67
2019-05-01T16:29:49.136Z,62.53
2019-05-01T16:32:21.067Z,65.40
2019-05-01T16:34:59.320Z,66.03
2019-05-01T16:38:27.159Z,64.37
2019-05-01T16:41:01.406Z,61.77
2019-05-01T16:43:35.945Z,61.37
2019-05-01T16:46:13.503Z,64.83
2019-05-01T16:48:43.668Z,65.90
2019-05-01T16:51:17.910Z,62.37
2019-05-01T16:53:50.989Z,64.40
2019-05-01T16:56:24.255Z,62.47
2019-05-01T16:59:00.985Z,64.73
2019-05-01T17:01:59.492Z,62.23
2019-05-01T17:08:35.313Z,63.30
2019-05-01T17:10:49.763Z,65.57
2019-05-01T17:13:26.901Z,58.73
2019-05-01T17:16:22.325Z,64.33
2019-05-01T17:18:57.539Z,60.40
2019-05-01T17:21:28.299Z,60.40
2019-05-01T17:23:58.892Z,62.10
2019-05-01T17:26:29.475Z,61.57
2019-05-01T17:28:59.999Z,62.20
2019-05-01T17:31:30.777Z,63.20
2019-05-01T17:34:01.413Z,60.90
2019-05-01T17:36:32.006Z,67.43
2019-05-01T17:39:02.647Z,63.07
2019-05-01T17:41:33.326Z,68.50
2019-05-01T17:44:04.056Z,59.60
2019-05-01T17:46:34.618Z,61.07
2019-05-01T17:49:09.158Z,63.30
2019-05-01T17:51:37.680Z,59.90
2019-05-01T17:54:08.631Z,56.13
2019-05-01T17:56:39.302Z,56.30
2019-05-01T17:59:10.005Z,52.63
2019-05-01T18:02:11.651Z,55.60
2019-05-01T18:04:56.120Z,55.80
2019-05-01T18:07:28.745Z,57.67
2019-05-01T18:10:00.412Z,51.93
2019-05-01T18:12:31.222Z,50.43
2019-05-01T18:15:01.940Z,53.10
2019-05-01T18:17:32.802Z,52.50
2019-05-01T18:20:03.379Z,58.80
2019-05-01T18:22:51.348Z,55.67
2019-05-01T18:25:33.115Z,53.90
2019-05-01T18:28:39.817Z,55.03
2019-05-01T18:31:15.548Z,53.97
2019-05-01T18:33:46.408Z,52.63
2019-05-01T18:36:19.937Z,52.50
2019-05-01T18:39:01.072Z,49.13
2019-05-01T18:41:59.948Z,51.10
2019-05-01T18:44:30.898Z,55.50
2019-05-01T18:47:01.717Z,50.03
2019-05-01T18:49:32.590Z,49.30
2019-05-01T18:52:03.416Z,52.67
2019-05-01T18:54:35.043Z,53.77
2019-05-01T18:57:07.517Z,50.33
2019-05-01T18:59:38.869Z,52.00
2019-05-01T19:02:09.829Z,51.47
2019-05-01T19:04:40.662Z,55.87
2019-05-01T19:07:12.397Z,53.87
2019-05-01T19:09:43.925Z,54.03
2019-05-01T19:12:16.248Z,53.70
2019-05-01T19:14:47.160Z,56.73
2019-05-01T19:17:19.038Z,54.37
2019-05-01T19:19:50.085Z,60.33
2019-05-01T19:22:21.458Z,56.93
2019-05-01T19:24:57.927Z,60.90
2019-05-01T19:27:28.721Z,65.40
2019-05-01T19:30:00.992Z,59.93
2019-05-01T19:32:33.370Z,65.70
2019-05-01T19:35:07.567Z,61.70
2019-05-01T19:37:39.469Z,67.13
2019-05-01T19:40:10.679Z,66.77
2019-05-01T19:42:47.749Z,63.27
2019-05-01T19:45:19.038Z,68.27
2019-05-01T19:47:49.923Z,60.97
2019-05-01T19:50:20.866Z,65.80
2019-05-01T19:52:52.955Z,67.37
2019-05-01T19:55:23.873Z,66.27
2019-05-01T19:57:54.689Z,65.33
2019-05-01T20:00:54.831Z,66.17
2019-05-01T20:03:25.846Z,65.00
2019-05-01T20:05:59.506Z,64.53
2019-05-01T20:08:29.703Z,65.43
2019-05-01T20:11:00.544Z,68.03
2019-05-01T20:13:31.931Z,69.13
2019-05-01T20:16:02.801Z,65.60
2019-05-01T20:18:33.484Z,64.80
2019-05-01T20:21:04.364Z,64.10
2019-05-01T20:23:35.341Z,66.23
2019-05-01T20:26:06.209Z,66.10
2019-05-01T20:28:37.474Z,71.30
2019-05-01T20:31:08.486Z,66.17
2019-05-01T20:33:43.916Z,69.40
2019-05-01T20:36:11.736Z,63.47
2019-05-01T20:38:42.605Z,70.47
2019-05-01T20:41:15.846Z,70.17
2019-05-01T20:43:45.850Z,68.73
2019-05-01T20:46:16.670Z,68.83
2019-05-01T20:48:47.122Z,70.43
2019-05-01T20:51:20.142Z,70.73
2019-05-01T20:53:49.837Z,66.57
2019-05-01T20:56:34.063Z,67.77
2019-05-01T20:59:04.972Z,67.93
2019-05-01T21:01:35.679Z,68.83
2019-05-01T21:04:31.186Z,63.97
2019-05-01T21:07:15.527Z,66.50
2019-05-01T21:09:48.436Z,69.93
2019-05-01T21:12:19.122Z,70.30
2019-05-01T21:14:49.883Z,69.30
2019-05-01T21:17:21.234Z,70.40
2019-05-01T21:19:51.345Z,67.47
2019-05-01T21:22:23.285Z,66.63
2019-05-01T21:24:53.373Z,74.83
2019-05-01T21:27:24.381Z,67.77
2019-05-01T21:29:54.747Z,69.83
2019-05-01T21:32:27.378Z,75.97
2019-05-01T21:34:56.608Z,74.07
2019-05-01T21:37:26.781Z,69.83
2019-05-01T21:39:56.830Z,74.20
2019-05-01T21:42:26.919Z,77.63
2019-05-01T21:44:57.067Z,78.17
2019-05-01T21:47:27.280Z,70.17
2019-05-01T21:49:57.524Z,77.17
2019-05-01T21:52:27.735Z,78.07
2019-05-01T21:54:57.848Z,74.57
2019-05-01T21:57:30.608Z,82.17
2019-05-01T21:59:59.698Z,77.73
2019-05-01T22:02:30.081Z,83.53
2019-05-01T22:05:03.737Z,80.53
2019-05-01T22:07:31.869Z,74.53
2019-05-01T22:10:02.048Z,78.47
2019-05-01T22:12:32.194Z,70.73
2019-05-01T22:15:10.819Z,79.03
2019-05-01T22:17:49.628Z,77.40
2019-05-01T22:20:24.896Z,77.57
2019-05-01T22:23:00.226Z,76.83
2019-05-01T22:25:37.483Z,75.43
2019-05-01T22:28:13.933Z,73.57
2019-05-01T22:31:03.178Z,75.47
2019-05-01T22:33:33.889Z,72.03
2019-05-01T22:36:04.213Z,71.60
2019-05-01T22:38:34.420Z,74.50
2019-05-01T22:41:09.725Z,73.80
2019-05-01T22:43:40.055Z,75.23
2019-05-01T22:46:16.423Z,80.53
2019-05-01T22:48:46.558Z,74.97
2019-05-01T22:51:21.523Z,78.00
2019-05-01T22:53:57.890Z,81.23
2019-05-01T22:56:28.058Z,76.20
2019-05-01T22:58:58.217Z,71.73
2019-05-01T23:01:28.618Z,75.93
2019-05-01T23:04:01.385Z,78.23
2019-05-01T23:06:31.599Z,85.57
2019-05-01T23:09:01.824Z,80.43
2019-05-01T23:11:34.070Z,77.27
2019-05-01T23:14:04.431Z,75.83
2019-05-01T23:16:39.886Z,82.13
2019-05-01T23:19:10.133Z,79.77
2019-05-01T23:21:40.396Z,77.33
2019-05-01T23:24:10.645Z,75.83
2019-05-01T23:26:40.825Z,78.50
2019-05-01T23:29:11.165Z,82.23
2019-05-01T23:31:41.475Z,83.03
2019-05-01T23:34:11.816Z,77.17
2019-05-01T23:36:41.969Z,76.57
2019-05-01T23:39:13.465Z,85.07
2019-05-01T23:41:46.898Z,78.13
2019-05-01T23:44:15.579Z,85.13
2019-05-01T23:46:45.787Z,83.37
2019-05-01T23:49:16.035Z,80.70
2019-05-01T23:51:46.172Z,86.33
2019-05-01T23:54:16.329Z,84.23
2019-05-01T23:56:46.407Z,81.93
2019-05-01T23:59:16.528Z,80.80
